Terminal Aerodrome Forecast
Issued by NWS Wakefield, VA

Home | Current Version | Previous Version | Text Only | Print | Product List | Glossary On
Versions: 1 2 3 4 5 6 7 8 9 10 11 12 13 14 15 16
303
FTUS41 KAKQ 080833 AAA
TAFSBY
TAF AMD
KSBY 080833Z 0809/0906 36012G20KT P6SM BKN025 OVC100
     FM081000 36012KT P6SM BKN025
     FM081300 36012G18KT P6SM SCT030 BKN100
     FM082000 05008KT P6SM OVC030
     FM090200 08009KT 5SM -RA BR OVC010=

USA.gov is the U.S. government's official web portal to all federal, state and local government web resources and services.